Brainerd Lakes Regional Airport
KBRD : rendu visible

Aérodrome :











RETROUVEZ-NOUS SUR...

 
LOGIN :

S'inscrire | Disclaimer

   EN    FR    IT 

 









Légende :    VFR   VFR Marginal   IFR   IFR Intensif   IFR Très Intensif
Visi : 
Plafond : 
>= 8 km
>= 3000ft
5 à 8 km
1000 à 3000 ft
1500m à 5 km
500 à 1000 ft
800 à 1500m
200 à 500 ft
< 800m
< 200 ft
Symboles :   Orages  Brouillard  Fortes neiges  Fortes précipitations  Vent > 20 kt






- Altitude de l'aérodrome : 1232 ft


KBRD - Brainerd Lakes Regional

DERNIER METAR :
  • 271653Z AUTO 33004KT 10SM CLR M08/M17 A3015 RMK AO2 SLP233 T10831167

METARs EXPIRÉS :
  • 271553Z AUTO 34006KT 10SM CLR M09/M17 A3014 RMK AO2 SLP232 T10941172
  • 271453Z AUTO 01006KT 9SM CLR M10/M17 A3014 RMK AO2 SLP232 T11001172 51006

TAF KBRD
Valide du 27 à 12h jusqu'au 28 à 12h UTC


271141Z 2712/2812 VRB03KT P6SM OVC035
FM272000 00000KT P6SM VCSH OVC030
FM280600 00000KT P6SM BKN040
FM281000 VRB03KT P6SM SCT050



MET'MAP, la Météo Aéronautique d'un coup d'oeil ! - Copyright ORBIFLY Décembre 2007 - Disclaimer

ORBIFLY MET'MAP TEAM :

Programmation & Développement : Alexandra Zaïnal
Sur une idée originale de : Baudouin d'Aumeries
Assistance à la programmation : Marc-Olivier Méhu
Soutien technique & logistique : Manuel Goepfert

Contact : metmap@orbifly.com




SOURCES & CREDITS :

   NOAA       Earth
Advisory